Terminal Aerodrome Forecast
Issued by NWS

Home | Current Version | Previous Version | Text Only | Print | Product List | Glossary On
Versions: 1 2 3 4 5 6 7 8 9 10 11 12 13 14 15 16 17 18
944
FTUS45 KTFX 230542
TAFHLN
TAF
KHLN 230542Z 2306/2406 28010KT P6SM SCT050 BKN110
     FM231700 28013KT P6SM SCT070 BKN150
     FM240000 25005KT P6SM SKC=

USA.gov is the U.S. government's official web portal to all federal, state and local government web resources and services.